createdAt,value
2023-01-26T00:01:29.290Z,101328.66
2023-01-26T00:03:57.778Z,101333.75
2023-01-26T00:06:26.355Z,101326.09
2023-01-26T00:08:56.456Z,101318.63
2023-01-26T00:11:26.896Z,101345.84
2023-01-26T00:13:56.323Z,101355.19
2023-01-26T00:16:25.170Z,101346.88
2023-01-26T00:18:54.012Z,101350.88
2023-01-26T00:21:23.344Z,101337.47
2023-01-26T00:23:52.711Z,101349.34
2023-01-26T00:26:22.573Z,101335.69
2023-01-26T00:28:51.201Z,101335.75
2023-01-26T00:31:22.583Z,101344.25
2023-01-26T00:33:50.533Z,101306.88
2023-01-26T00:36:18.661Z,101352.66
2023-01-26T00:38:46.882Z,101356.09
2023-01-26T00:41:35.311Z,101345.09
2023-01-26T00:44:03.426Z,101338.25
2023-01-26T00:46:32.751Z,101344.16
2023-01-26T00:49:01.054Z,101349.22
2023-01-26T00:51:29.181Z,101354.44
2023-01-26T00:53:56.986Z,101356.16
2023-01-26T00:56:28.045Z,101339.97
2023-01-26T00:58:56.101Z,101357.69
2023-01-26T01:01:24.214Z,101345.91
2023-01-26T01:03:53.606Z,101360.50
2023-01-26T01:06:21.770Z,101340.88
2023-01-26T01:08:49.569Z,101331.56
2023-01-26T01:11:17.487Z,101359.53
2023-01-26T01:13:45.350Z,101342.41
2023-01-26T01:16:15.667Z,101339.03
2023-01-26T01:18:44.413Z,101351.91
2023-01-26T01:21:15.140Z,101342.66
2023-01-26T01:23:43.421Z,101335.88
2023-01-26T01:26:11.462Z,101354.56
2023-01-26T01:28:39.743Z,101359.66
2023-01-26T01:31:08.629Z,101356.13
2023-01-26T01:33:36.507Z,101361.22
2023-01-26T01:36:06.976Z,101363.72
2023-01-26T01:38:36.343Z,101361.16
2023-01-26T01:41:04.635Z,101356.00
2023-01-26T01:43:32.896Z,101360.34
2023-01-26T01:46:02.648Z,101365.50
2023-01-26T01:48:36.069Z,101371.38
2023-01-26T01:51:08.155Z,101366.44
2023-01-26T01:53:40.548Z,101371.47
2023-01-26T01:56:12.976Z,101372.31
2023-01-26T01:58:44.062Z,101375.00
2023-01-26T02:01:12.486Z,101386.75
2023-01-26T02:03:41.731Z,101375.81
2023-01-26T02:06:14.597Z,101353.66
2023-01-26T02:08:46.785Z,101368.13
2023-01-26T02:11:18.573Z,101384.31
2023-01-26T02:13:49.659Z,101383.25
2023-01-26T02:16:18.035Z,101360.34
2023-01-26T02:18:46.890Z,101378.16
2023-01-26T02:21:17.499Z,101372.28
2023-01-26T02:24:09.645Z,101353.75
2023-01-26T02:26:39.509Z,101360.41
2023-01-26T02:29:10.798Z,101377.22
2023-01-26T02:31:41.122Z,101362.91
2023-01-26T02:34:09.115Z,101374.72
2023-01-26T02:36:36.950Z,101378.09
2023-01-26T02:39:21.174Z,101368.72
2023-01-26T02:42:09.325Z,101380.53
2023-01-26T02:44:38.114Z,101389.16
2023-01-26T02:47:12.955Z,101387.75
2023-01-26T02:49:50.751Z,101352.66
2023-01-26T02:52:20.440Z,101351.69
2023-01-26T02:55:20.285Z,101378.03
2023-01-26T02:57:50.845Z,101349.00
2023-01-26T03:00:20.886Z,101361.97
2023-01-26T03:02:48.925Z,101368.69
2023-01-26T03:05:16.829Z,101360.28
2023-01-26T03:07:45.379Z,101361.84
2023-01-26T03:10:16.151Z,101389.97
2023-01-26T03:12:44.012Z,101386.69
2023-01-26T03:15:31.142Z,101374.69
2023-01-26T03:18:25.338Z,101372.03
2023-01-26T03:21:10.333Z,101383.22
2023-01-26T03:23:55.936Z,101383.22
2023-01-26T03:26:41.578Z,101393.47
2023-01-26T03:29:09.525Z,101390.66
2023-01-26T03:31:38.948Z,101392.47
2023-01-26T03:34:06.950Z,101382.19
2023-01-26T03:36:34.798Z,101383.16
2023-01-26T03:39:02.714Z,101379.72
2023-01-26T03:41:48.285Z,101392.41
2023-01-26T03:44:33.255Z,101379.03
2023-01-26T03:47:20.195Z,101401.84
2023-01-26T03:50:05.252Z,101383.03
2023-01-26T03:52:51.296Z,101405.31
2023-01-26T03:55:36.528Z,101400.09
2023-01-26T03:58:04.430Z,101380.63
2023-01-26T04:00:32.232Z,101403.63
2023-01-26T04:03:18.960Z,101400.97
2023-01-26T04:06:15.904Z,101404.50
2023-01-26T04:08:44.573Z,101411.22
2023-01-26T04:11:12.449Z,101409.50
2023-01-26T04:13:57.980Z,101406.81
2023-01-26T04:16:43.608Z,101413.78
2023-01-26T04:19:30.339Z,101406.97
2023-01-26T04:22:00.414Z,101411.50
2023-01-26T04:24:28.294Z,101419.94
2023-01-26T04:26:56.190Z,101424.09
2023-01-26T04:29:24.173Z,101412.25
2023-01-26T04:31:51.959Z,101422.19
2023-01-26T04:34:22.077Z,101430.06
2023-01-26T04:36:50.118Z,101414.66
2023-01-26T04:39:17.909Z,101399.56
2023-01-26T04:41:45.837Z,101413.28
2023-01-26T04:44:13.675Z,101416.44
2023-01-26T04:46:41.577Z,101403.78
2023-01-26T04:49:10.412Z,101430.16
2023-01-26T04:51:39.736Z,101423.31
2023-01-26T04:54:07.935Z,101433.75
2023-01-26T04:56:37.203Z,101415.91
2023-01-26T04:59:07.224Z,101415.75
2023-01-26T05:01:35.409Z,101438.69
2023-01-26T05:04:04.829Z,101448.22
2023-01-26T05:06:33.037Z,101441.44
2023-01-26T05:09:02.276Z,101436.19
2023-01-26T05:11:30.177Z,101464.50
2023-01-26T05:13:58.236Z,101463.84
2023-01-26T05:16:26.092Z,101465.41
2023-01-26T05:18:54.904Z,101469.81
2023-01-26T05:21:24.663Z,101456.06
2023-01-26T05:23:52.663Z,101464.44
2023-01-26T05:26:22.132Z,101479.03
2023-01-26T05:28:50.043Z,101457.69
2023-01-26T05:31:17.982Z,101480.72
2023-01-26T05:33:45.849Z,101485.19
2023-01-26T05:36:13.677Z,101484.16
2023-01-26T05:38:41.534Z,101476.69
2023-01-26T05:41:09.449Z,101482.47
2023-01-26T05:43:38.754Z,101492.72
2023-01-26T05:46:07.048Z,101499.59
2023-01-26T05:48:34.900Z,101492.72
2023-01-26T05:51:04.017Z,101499.50
2023-01-26T05:53:32.132Z,101514.00
2023-01-26T05:56:00.059Z,101516.50
2023-01-26T05:58:27.828Z,101492.78
2023-01-26T06:00:57.099Z,101518.28
2023-01-26T06:03:24.969Z,101528.53
2023-01-26T06:05:56.247Z,101516.66
2023-01-26T06:08:24.022Z,101511.47
2023-01-26T06:10:51.932Z,101515.09
2023-01-26T06:13:19.773Z,101537.81
2023-01-26T06:15:47.546Z,101543.94
2023-01-26T06:18:16.930Z,101544.91
2023-01-26T06:20:44.826Z,101548.06
2023-01-26T06:23:12.838Z,101555.84
2023-01-26T06:25:41.041Z,101559.50
2023-01-26T06:28:08.892Z,101565.53
2023-01-26T06:30:36.774Z,101552.81
2023-01-26T06:33:07.145Z,101575.00
2023-01-26T06:35:37.186Z,101575.88
2023-01-26T06:38:05.363Z,101571.47
2023-01-26T06:40:33.384Z,101576.66
2023-01-26T06:43:01.174Z,101579.38
2023-01-26T06:45:29.091Z,101593.66
2023-01-26T06:47:56.972Z,101569.03
2023-01-26T06:50:28.005Z,101600.47
2023-01-26T06:53:00.684Z,101600.38
2023-01-26T06:55:35.547Z,101601.28
2023-01-26T06:58:03.526Z,101604.66
2023-01-26T07:00:31.569Z,101606.47
2023-01-26T07:02:59.303Z,101616.69
2023-01-26T07:05:27.286Z,101616.72
2023-01-26T07:07:55.380Z,101597.19
2023-01-26T07:10:24.520Z,101627.78
2023-01-26T07:12:52.517Z,101631.22
2023-01-26T07:15:20.222Z,101635.53
2023-01-26T07:17:47.972Z,101625.31
2023-01-26T07:20:16.181Z,101658.59
2023-01-26T07:22:44.021Z,101650.91
2023-01-26T07:25:11.804Z,101662.06
2023-01-26T07:27:41.238Z,101661.22
2023-01-26T07:30:10.552Z,101649.34
2023-01-26T07:32:38.461Z,101666.41
2023-01-26T07:35:07.289Z,101675.72
2023-01-26T07:37:35.036Z,101678.34
2023-01-26T07:40:03.733Z,101676.59
2023-01-26T07:42:32.189Z,101687.72
2023-01-26T07:45:01.580Z,101681.78
2023-01-26T07:47:29.395Z,101703.13
2023-01-26T07:49:57.451Z,101716.78
2023-01-26T07:52:26.063Z,101719.31
2023-01-26T07:54:53.831Z,101721.06
2023-01-26T07:57:21.780Z,101723.59
2023-01-26T07:59:49.533Z,101728.78
2023-01-26T08:02:18.651Z,101725.34
2023-01-26T08:04:47.070Z,101721.09
2023-01-26T08:07:15.057Z,101730.47
2023-01-26T08:09:43.220Z,101722.84
2023-01-26T08:12:11.134Z,101740.72
2023-01-26T08:14:46.792Z,101743.28
2023-01-26T08:17:17.604Z,101745.00
2023-01-26T08:19:47.297Z,101754.38
2023-01-26T08:22:15.585Z,101760.34
2023-01-26T08:24:43.437Z,101739.88
2023-01-26T08:27:11.180Z,101768.84
2023-01-26T08:29:39.084Z,101770.56
2023-01-26T08:32:08.336Z,101768.00
2023-01-26T08:34:36.188Z,101780.78
2023-01-26T08:37:05.810Z,101776.53
2023-01-26T08:39:33.666Z,101766.28
2023-01-26T08:42:01.399Z,101788.44
2023-01-26T08:44:29.305Z,101795.28
2023-01-26T08:46:57.166Z,101785.88
2023-01-26T08:49:24.905Z,101792.69
2023-01-26T08:51:52.787Z,101796.13
2023-01-26T08:54:22.770Z,101807.22
2023-01-26T08:56:50.605Z,101801.22
2023-01-26T08:59:18.574Z,101813.16
2023-01-26T09:01:46.455Z,101812.34
2023-01-26T09:04:14.212Z,101802.97
2023-01-26T09:06:42.034Z,101817.44
2023-01-26T09:09:13.382Z,101805.53
2023-01-26T09:11:42.507Z,101809.75
2023-01-26T09:14:10.461Z,101826.81
2023-01-26T09:16:38.344Z,101837.94
2023-01-26T09:19:06.106Z,101839.63
2023-01-26T09:21:33.960Z,101812.31
2023-01-26T09:24:02.764Z,101848.16
2023-01-26T09:26:30.840Z,101850.72
2023-01-26T09:29:00.075Z,101839.63
2023-01-26T09:31:28.138Z,101848.19
2023-01-26T09:33:56.049Z,101855.84
2023-01-26T09:36:23.929Z,101848.97
2023-01-26T09:38:54.182Z,101864.34
2023-01-26T09:41:38.118Z,101842.13
2023-01-26T09:44:11.550Z,101857.47
2023-01-26T09:46:52.500Z,101866.03
2023-01-26T09:49:25.771Z,101870.28
2023-01-26T09:52:03.126Z,101866.00
2023-01-26T09:54:36.464Z,101861.72
2023-01-26T09:57:13.730Z,101871.97
2023-01-26T09:59:49.180Z,101884.72
2023-01-26T10:02:30.613Z,101873.59
2023-01-26T10:05:02.641Z,101878.69
2023-01-26T10:07:30.461Z,101904.25
2023-01-26T10:09:58.527Z,101892.28
2023-01-26T10:12:31.199Z,101905.94
2023-01-26T10:15:06.172Z,101915.28
2023-01-26T10:17:37.544Z,101909.31
2023-01-26T10:20:10.640Z,101916.13
2023-01-26T10:22:45.331Z,101922.97
2023-01-26T10:25:17.621Z,101921.25
2023-01-26T10:27:46.323Z,101934.94
2023-01-26T10:30:18.307Z,101934.91
2023-01-26T10:32:48.812Z,101946.81
2023-01-26T10:35:19.948Z,101957.91
2023-01-26T10:37:48.481Z,101955.41
2023-01-26T10:40:17.573Z,101954.59
2023-01-26T10:42:56.184Z,101954.56
2023-01-26T10:45:31.060Z,101959.72
2023-01-26T10:48:19.052Z,101952.03
2023-01-26T10:50:47.361Z,101954.59
2023-01-26T10:53:23.625Z,101956.31
2023-01-26T10:56:14.504Z,101967.31
2023-01-26T10:58:47.838Z,101969.03
2023-01-26T11:01:27.825Z,101946.75
2023-01-26T11:04:07.093Z,101977.59
2023-01-26T11:06:36.245Z,101992.94
2023-01-26T11:09:12.857Z,101992.94
2023-01-26T11:11:41.701Z,101993.78
2023-01-26T11:14:14.518Z,101997.22
2023-01-26T11:16:47.406Z,101970.81
2023-01-26T11:19:25.205Z,101990.44
2023-01-26T11:21:56.770Z,101992.94
2023-01-26T11:24:28.170Z,101999.78
2023-01-26T11:27:22.865Z,102009.19
2023-01-26T11:30:17.145Z,102010.03
2023-01-26T11:32:57.809Z,101963.06
2023-01-26T11:35:33.267Z,102020.31
2023-01-26T11:38:14.213Z,102019.44
2023-01-26T11:40:48.573Z,102007.50
2023-01-26T11:43:43.109Z,102023.72
2023-01-26T11:46:40.049Z,102026.34
2023-01-26T11:49:24.572Z,102031.44
2023-01-26T11:52:04.978Z,102021.22
2023-01-26T11:54:41.910Z,102025.50
2023-01-26T11:57:21.470Z,102016.06
2023-01-26T11:59:54.470Z,102031.53
2023-01-26T12:02:30.341Z,102031.50
2023-01-26T12:05:06.103Z,102041.78
2023-01-26T12:07:54.547Z,102052.84
2023-01-26T12:10:28.683Z,102046.09
2023-01-26T12:13:04.986Z,102025.53
2023-01-26T12:15:36.407Z,102045.97
2023-01-26T12:18:16.309Z,102051.16
2023-01-26T12:20:48.876Z,102041.72
2023-01-26T12:23:33.427Z,102042.59
2023-01-26T12:26:04.792Z,102052.00
2023-01-26T12:28:38.821Z,102055.38
2023-01-26T12:31:14.465Z,102063.91
2023-01-26T12:33:43.075Z,102055.41
2023-01-26T12:36:27.420Z,102056.31
2023-01-26T12:39:09.610Z,102051.97
2023-01-26T12:42:01.748Z,102061.34
2023-01-26T12:44:37.817Z,102064.72
2023-01-26T12:47:12.232Z,102048.47
2023-01-26T12:49:47.282Z,102069.88
2023-01-26T12:52:21.174Z,102069.19
2023-01-26T12:54:55.831Z,102077.75
2023-01-26T12:57:28.699Z,102063.34
2023-01-26T13:00:06.073Z,102092.41
2023-01-26T13:02:36.820Z,102087.25
2023-01-26T13:05:07.873Z,102098.34
2023-01-26T13:07:39.445Z,102101.69
2023-01-26T13:10:44.839Z,102089.50
2023-01-26T13:13:31.822Z,102109.09
2023-01-26T13:16:33.102Z,102103.94
2023-01-26T13:19:04.917Z,102121.22
2023-01-26T13:21:44.949Z,102130.72
2023-01-26T13:24:45.217Z,102124.75
2023-01-26T13:27:32.336Z,102145.94
2023-01-26T13:30:01.067Z,102127.00
2023-01-26T13:33:03.004Z,102143.91
2023-01-26T13:35:32.467Z,102142.06
2023-01-26T13:38:07.938Z,102153.81
2023-01-26T13:40:39.332Z,102129.78
2023-01-26T13:43:25.578Z,102151.00
2023-01-26T13:46:07.879Z,102148.34
2023-01-26T13:48:45.979Z,102147.47
2023-01-26T13:51:17.590Z,102150.72
2023-01-26T13:53:49.401Z,102156.66
2023-01-26T13:56:28.587Z,102176.25
2023-01-26T13:59:05.430Z,102187.25
2023-01-26T14:01:33.352Z,102187.44
2023-01-26T14:04:05.850Z,102168.38
2023-01-26T14:06:35.504Z,102196.63
2023-01-26T14:09:06.584Z,102192.22
2023-01-26T14:11:35.777Z,102201.38
2023-01-26T14:14:04.234Z,102197.25
2023-01-26T14:16:34.615Z,102191.25
2023-01-26T14:19:06.523Z,102193.84
2023-01-26T14:21:34.412Z,102198.75
2023-01-26T14:24:02.249Z,102210.00
2023-01-26T14:26:35.250Z,102201.28
2023-01-26T14:29:03.773Z,102216.59
2023-01-26T14:31:32.330Z,102221.69
2023-01-26T14:34:01.132Z,102215.59
2023-01-26T14:36:33.140Z,102235.97
2023-01-26T14:39:01.204Z,102227.34
2023-01-26T14:41:31.861Z,102233.78
2023-01-26T14:44:01.945Z,102254.94
2023-01-26T14:46:39.260Z,102250.78
2023-01-26T14:49:13.744Z,102252.56
2023-01-26T14:51:45.582Z,102260.94
2023-01-26T14:54:26.919Z,102268.16
2023-01-26T14:56:54.947Z,102260.41
2023-01-26T14:59:29.088Z,102256.59
2023-01-26T15:02:06.066Z,102280.59
2023-01-26T15:04:39.424Z,102255.88
2023-01-26T15:07:34.347Z,102280.00
2023-01-26T15:10:02.671Z,102288.13
2023-01-26T15:12:35.134Z,102278.41
2023-01-26T15:15:13.475Z,102282.88
2023-01-26T15:17:43.591Z,102263.34
2023-01-26T15:20:39.484Z,102273.50
2023-01-26T15:23:22.480Z,102302.53
2023-01-26T15:25:50.538Z,102304.63
2023-01-26T15:28:20.349Z,102304.00
2023-01-26T15:30:52.085Z,102302.78
2023-01-26T15:33:41.666Z,102308.22
2023-01-26T15:36:23.836Z,102313.97
2023-01-26T15:38:53.367Z,102309.59
2023-01-26T15:41:21.219Z,102304.13
2023-01-26T15:43:49.081Z,102300.50
2023-01-26T15:46:18.286Z,102307.69
2023-01-26T15:48:46.951Z,102280.28
2023-01-26T15:51:15.545Z,102298.91
2023-01-26T15:53:43.437Z,102303.69
2023-01-26T15:56:47.877Z,102323.78
2023-01-26T15:59:15.629Z,102306.88
2023-01-26T16:01:44.980Z,102322.53
2023-01-26T16:04:14.397Z,102303.44
2023-01-26T16:06:42.302Z,102331.06
2023-01-26T16:09:10.220Z,102340.16
2023-01-26T16:11:44.951Z,102354.59
2023-01-26T16:14:14.478Z,102351.59
2023-01-26T16:16:42.299Z,102328.00
2023-01-26T16:19:11.693Z,102353.97
2023-01-26T16:21:41.190Z,102349.97
2023-01-26T16:24:11.493Z,102332.25
2023-01-26T16:26:39.368Z,102359.41
2023-01-26T16:29:07.214Z,102351.22
2023-01-26T16:31:36.680Z,102336.47
2023-01-26T16:34:04.894Z,102356.84
2023-01-26T16:36:34.199Z,102347.44
2023-01-26T16:39:01.991Z,102333.19
2023-01-26T16:41:32.811Z,102353.47
2023-01-26T16:44:01.790Z,102356.28
2023-01-26T16:46:31.489Z,102366.22
2023-01-26T16:48:59.489Z,102361.88
2023-01-26T16:51:29.779Z,102377.28
2023-01-26T16:54:00.669Z,102393.38
2023-01-26T16:56:29.200Z,102395.75
2023-01-26T16:58:57.006Z,102359.59
2023-01-26T17:01:28.594Z,102397.00
2023-01-26T17:03:57.619Z,102395.31
2023-01-26T17:06:25.786Z,102395.16
2023-01-26T17:08:53.983Z,102376.19
2023-01-26T17:11:26.104Z,102395.09
2023-01-26T17:13:57.071Z,102391.63
2023-01-26T17:16:29.603Z,102391.91
2023-01-26T17:18:57.826Z,102397.72
2023-01-26T17:21:26.883Z,102362.84
2023-01-26T17:23:56.804Z,102392.94
2023-01-26T17:26:26.108Z,102393.50
2023-01-26T17:28:55.961Z,102408.00
2023-01-26T17:31:24.649Z,102403.38
2023-01-26T17:33:52.628Z,102422.94
2023-01-26T17:36:21.353Z,102413.81
2023-01-26T17:38:49.888Z,102427.25
2023-01-26T17:41:18.465Z,102434.03
2023-01-26T17:43:48.019Z,102407.53
2023-01-26T17:46:17.832Z,102400.66
2023-01-26T17:48:46.557Z,102429.63
2023-01-26T17:51:16.643Z,102433.56
2023-01-26T17:53:45.791Z,102404.53
2023-01-26T17:56:15.020Z,102425.50
2023-01-26T17:58:43.071Z,102426.50
2023-01-26T18:01:12.377Z,102413.75
2023-01-26T18:03:42.799Z,102448.38
2023-01-26T18:06:11.394Z,102447.72
2023-01-26T18:08:40.954Z,102444.56
2023-01-26T18:11:11.474Z,102446.88
2023-01-26T18:13:39.264Z,102453.75
2023-01-26T18:16:09.131Z,102453.94
2023-01-26T18:18:38.309Z,102454.75
2023-01-26T18:21:14.824Z,102463.47
2023-01-26T18:23:45.348Z,102462.44
2023-01-26T18:26:13.271Z,102465.81
2023-01-26T18:28:42.045Z,102465.41
2023-01-26T18:31:14.506Z,102457.41
2023-01-26T18:33:44.471Z,102469.50
2023-01-26T18:36:13.563Z,102462.75
2023-01-26T18:38:41.935Z,102487.41
2023-01-26T18:41:13.643Z,102477.44
2023-01-26T18:43:42.160Z,102455.31
2023-01-26T18:46:10.353Z,102474.56
2023-01-26T18:48:38.487Z,102482.69
2023-01-26T18:51:08.672Z,102492.53
2023-01-26T18:53:38.643Z,102494.88
2023-01-26T18:56:08.992Z,102477.81
2023-01-26T18:58:37.246Z,102498.78
2023-01-26T19:01:09.510Z,102493.38
2023-01-26T19:03:38.013Z,102486.63
2023-01-26T19:06:07.623Z,102468.31
2023-01-26T19:08:36.112Z,102502.91
2023-01-26T19:11:08.572Z,102503.72
2023-01-26T19:13:37.046Z,102508.22
2023-01-26T19:16:07.360Z,102466.59
2023-01-26T19:18:36.649Z,102507.66
2023-01-26T19:21:05.722Z,102508.63
2023-01-26T19:23:37.070Z,102510.19
2023-01-26T19:26:10.763Z,102502.69
2023-01-26T19:28:41.066Z,102529.25
2023-01-26T19:31:09.491Z,102536.53
2023-01-26T19:33:37.706Z,102531.66
2023-01-26T19:36:08.346Z,102539.25
2023-01-26T19:38:39.744Z,102520.34
2023-01-26T19:41:07.726Z,102524.50
2023-01-26T19:43:38.390Z,102510.50
2023-01-26T19:46:08.478Z,102510.53
2023-01-26T19:48:36.539Z,102537.94
2023-01-26T19:51:06.587Z,102503.44
2023-01-26T19:53:36.886Z,102506.13
2023-01-26T19:56:10.281Z,102531.53
2023-01-26T19:58:38.530Z,102520.34
2023-01-26T20:01:09.113Z,102513.78
2023-01-26T20:03:37.257Z,102519.88
2023-01-26T20:06:06.211Z,102523.22
2023-01-26T20:08:34.529Z,102493.72
2023-01-26T20:11:06.217Z,102508.63
2023-01-26T20:13:35.872Z,102512.00
2023-01-26T20:16:06.802Z,102492.41
2023-01-26T20:18:35.409Z,102520.84
2023-01-26T20:21:03.702Z,102514.41
2023-01-26T20:23:31.447Z,102518.31
2023-01-26T20:26:03.535Z,102528.16
2023-01-26T20:28:31.617Z,102530.25
2023-01-26T20:31:07.454Z,102526.03
2023-01-26T20:33:35.920Z,102526.94
2023-01-26T20:36:07.296Z,102533.91
2023-01-26T20:38:35.664Z,102532.38
2023-01-26T20:41:07.497Z,102538.94
2023-01-26T20:43:39.222Z,102538.38
2023-01-26T20:46:09.691Z,102539.25
2023-01-26T20:48:37.948Z,102530.69
2023-01-26T20:51:11.313Z,102526.75
2023-01-26T20:53:39.301Z,102538.94
2023-01-26T20:56:09.220Z,102519.56
2023-01-26T20:58:37.223Z,102536.25
2023-01-26T21:04:12.114Z,102531.06
2023-01-26T21:06:41.735Z,102544.31
2023-01-26T21:09:12.561Z,102541.28
2023-01-26T21:11:40.684Z,102550.84
2023-01-26T21:14:08.582Z,102539.38
2023-01-26T21:16:36.586Z,102518.69
2023-01-26T21:19:04.591Z,102542.63
2023-01-26T21:21:33.922Z,102545.94
2023-01-26T21:24:01.741Z,102538.69
2023-01-26T21:26:29.879Z,102555.72
2023-01-26T21:28:59.788Z,102567.47
2023-01-26T21:31:29.358Z,102521.47
2023-01-26T21:33:58.213Z,102558.06
2023-01-26T21:36:27.921Z,102559.63
2023-01-26T21:38:58.664Z,102561.94
2023-01-26T21:41:45.855Z,102566.66
2023-01-26T21:44:15.590Z,102562.25
2023-01-26T21:46:45.824Z,102580.25
2023-01-26T21:49:14.512Z,102581.09
2023-01-26T21:52:00.191Z,102576.69
2023-01-26T21:54:30.081Z,102584.69
2023-01-26T21:56:58.882Z,102573.88
2023-01-26T21:59:25.650Z,102582.03
2023-01-26T22:01:55.618Z,102580.69
2023-01-26T22:04:25.156Z,102561.97
2023-01-26T22:06:53.284Z,102596.75
2023-01-26T22:09:23.198Z,102592.16
2023-01-26T22:11:53.736Z,102598.00
2023-01-26T22:14:25.165Z,102568.34
2023-01-26T22:16:53.107Z,102597.53
2023-01-26T22:19:21.018Z,102594.50
2023-01-26T22:21:49.002Z,102565.81
2023-01-26T22:24:18.028Z,102604.22
2023-01-26T22:26:45.904Z,102609.59
2023-01-26T22:29:15.247Z,102600.94
2023-01-26T22:31:43.219Z,102611.31
2023-01-26T22:34:11.823Z,102624.81
2023-01-26T22:36:40.384Z,102614.72
2023-01-26T22:39:09.245Z,102609.13
2023-01-26T22:41:37.745Z,102599.59
2023-01-26T22:44:06.118Z,102618.00
2023-01-26T22:46:36.813Z,102603.25
2023-01-26T22:49:05.810Z,102593.63
2023-01-26T22:51:37.530Z,102624.78
2023-01-26T22:54:06.173Z,102631.25
2023-01-26T22:56:34.343Z,102632.81
2023-01-26T22:59:02.617Z,102606.56
2023-01-26T23:01:32.547Z,102631.81
2023-01-26T23:04:02.529Z,102635.06
2023-01-26T23:06:30.788Z,102629.81
2023-01-26T23:09:01.160Z,102621.78
2023-01-26T23:11:29.562Z,102621.09
2023-01-26T23:13:59.179Z,102620.81
2023-01-26T23:16:28.431Z,102625.94
2023-01-26T23:18:58.708Z,102635.00
2023-01-26T23:21:29.463Z,102637.00
2023-01-26T23:23:57.514Z,102631.00
2023-01-26T23:26:25.791Z,102630.56
2023-01-26T23:28:53.724Z,102628.00
2023-01-26T23:31:21.741Z,102650.72
2023-01-26T23:33:49.834Z,102651.25
2023-01-26T23:36:17.754Z,102639.19
2023-01-26T23:38:46.989Z,102651.75
2023-01-26T23:41:14.794Z,102656.34
2023-01-26T23:43:42.928Z,102654.22
2023-01-26T23:46:12.053Z,102624.66
2023-01-26T23:48:40.171Z,102658.09
2023-01-26T23:51:10.876Z,102662.94
2023-01-26T23:53:39.366Z,102632.00
2023-01-26T23:56:10.930Z,102658.31
2023-01-26T23:58:39.184Z,102627.19
